createdAt,value
2023-01-29T00:01:42.480Z,5.82
2023-01-29T00:04:12.379Z,5.80
2023-01-29T00:06:42.476Z,5.80
2023-01-29T00:09:12.990Z,5.83
2023-01-29T00:11:43.913Z,5.84
2023-01-29T00:14:13.854Z,5.86
2023-01-29T00:16:46.343Z,5.90
2023-01-29T00:19:16.358Z,5.92
2023-01-29T00:21:46.391Z,5.93
2023-01-29T00:24:16.365Z,5.93
2023-01-29T00:26:46.287Z,5.93
2023-01-29T00:29:18.017Z,5.91
2023-01-29T00:31:50.780Z,5.93
2023-01-29T00:34:21.639Z,5.92
2023-01-29T00:36:51.514Z,5.91
2023-01-29T00:39:29.428Z,5.91
2023-01-29T00:42:18.818Z,5.90
2023-01-29T00:45:00.568Z,5.88
2023-01-29T00:47:36.645Z,5.88
2023-01-29T00:50:09.007Z,5.86
2023-01-29T00:52:41.101Z,5.86
2023-01-29T00:55:13.171Z,5.86
2023-01-29T00:57:43.117Z,5.85
2023-01-29T01:00:17.190Z,5.83
2023-01-29T01:03:02.464Z,5.84
2023-01-29T01:05:32.549Z,5.82
2023-01-29T01:08:02.535Z,5.83
2023-01-29T01:10:32.387Z,5.83
2023-01-29T01:13:04.608Z,5.82
2023-01-29T01:15:38.049Z,5.84
2023-01-29T01:18:10.866Z,5.85
2023-01-29T01:20:40.772Z,5.86
2023-01-29T01:23:10.696Z,5.88
2023-01-29T01:25:40.578Z,5.87
2023-01-29T01:28:11.768Z,5.88
2023-01-29T01:30:53.029Z,5.87
2023-01-29T01:33:25.686Z,5.88
2023-01-29T01:35:56.681Z,5.87
2023-01-29T01:38:26.603Z,5.89
2023-01-29T01:41:10.410Z,5.88
2023-01-29T01:44:01.953Z,5.88
2023-01-29T01:46:34.151Z,5.89
2023-01-29T01:49:16.106Z,5.93
2023-01-29T01:51:49.762Z,5.93
2023-01-29T01:54:24.456Z,5.94
2023-01-29T01:57:05.236Z,5.94
2023-01-29T01:59:36.927Z,5.94
2023-01-29T02:02:20.232Z,5.94
2023-01-29T02:05:05.539Z,5.95
2023-01-29T02:07:47.924Z,5.95
2023-01-29T02:10:20.555Z,5.94
2023-01-29T02:12:50.948Z,5.95
2023-01-29T02:15:20.861Z,5.96
2023-01-29T02:17:50.784Z,5.98
2023-01-29T02:20:27.346Z,5.96
2023-01-29T02:23:19.219Z,5.94
2023-01-29T02:26:29.127Z,5.91
2023-01-29T02:29:22.774Z,5.89
2023-01-29T02:31:59.950Z,5.88
2023-01-29T02:34:53.766Z,5.87
2023-01-29T02:37:32.142Z,5.85
2023-01-29T02:40:12.074Z,5.84
2023-01-29T02:42:47.530Z,5.84
2023-01-29T02:45:25.986Z,5.84
2023-01-29T02:48:01.558Z,5.85
2023-01-29T02:50:37.675Z,5.85
2023-01-29T02:53:15.658Z,5.85
2023-01-29T02:55:50.191Z,5.81
2023-01-29T02:58:24.362Z,5.79
2023-01-29T03:01:02.142Z,5.75
2023-01-29T03:03:36.705Z,5.73
2023-01-29T03:06:20.543Z,5.69
2023-01-29T03:08:56.235Z,5.66
2023-01-29T03:11:26.496Z,5.64
2023-01-29T03:14:01.026Z,5.66
2023-01-29T03:16:40.509Z,5.64
2023-01-29T03:19:16.440Z,5.63
2023-01-29T03:21:59.801Z,5.61
2023-01-29T03:24:57.785Z,5.61
2023-01-29T03:27:45.786Z,5.59
2023-01-29T03:30:31.602Z,5.57
2023-01-29T03:33:08.983Z,5.57
2023-01-29T03:35:43.751Z,5.55
2023-01-29T03:38:14.826Z,5.56
2023-01-29T03:40:55.619Z,5.54
2023-01-29T03:43:35.312Z,5.53
2023-01-29T03:46:11.911Z,5.54
2023-01-29T03:48:53.765Z,5.54
2023-01-29T03:51:30.888Z,5.53
2023-01-29T03:54:10.775Z,5.54
2023-01-29T03:56:52.594Z,5.52
2023-01-29T03:59:34.085Z,5.52
2023-01-29T04:02:07.890Z,5.51
2023-01-29T04:04:43.500Z,5.53
2023-01-29T04:07:16.608Z,5.53
2023-01-29T04:09:54.142Z,5.54
2023-01-29T04:12:29.649Z,5.54
2023-01-29T04:15:02.623Z,5.51
2023-01-29T04:17:37.816Z,5.52
2023-01-29T04:20:12.774Z,5.52
2023-01-29T04:22:43.787Z,5.51
2023-01-29T04:25:17.422Z,5.51
2023-01-29T04:27:55.488Z,5.51
2023-01-29T04:30:35.666Z,5.51
2023-01-29T04:33:21.096Z,5.49
2023-01-29T04:36:06.321Z,5.50
2023-01-29T04:38:47.111Z,5.50
2023-01-29T04:41:24.579Z,5.51
2023-01-29T04:44:03.679Z,5.52
2023-01-29T04:46:40.535Z,5.52
2023-01-29T04:49:25.034Z,5.52
2023-01-29T04:52:04.741Z,5.51
2023-01-29T04:54:46.266Z,5.53
2023-01-29T04:57:23.333Z,5.54
2023-01-29T04:59:59.432Z,5.54
2023-01-29T05:02:30.971Z,5.55
2023-01-29T05:05:02.726Z,5.56
2023-01-29T05:07:38.378Z,5.56
2023-01-29T05:10:10.096Z,5.57
2023-01-29T05:12:41.614Z,5.56
2023-01-29T05:15:17.519Z,5.56
2023-01-29T05:17:47.581Z,5.55
2023-01-29T05:20:17.964Z,5.55
2023-01-29T05:22:51.229Z,5.56
2023-01-29T05:25:27.198Z,5.58
2023-01-29T05:28:07.405Z,5.57
2023-01-29T05:30:40.367Z,5.57
2023-01-29T05:33:16.129Z,5.57
2023-01-29T05:35:46.169Z,5.56
2023-01-29T05:38:21.700Z,5.55
2023-01-29T05:40:51.887Z,5.53
2023-01-29T05:43:23.788Z,5.52
2023-01-29T05:45:57.731Z,5.52
2023-01-29T05:48:29.009Z,5.52
2023-01-29T05:51:05.965Z,5.54
2023-01-29T05:53:41.870Z,5.54
2023-01-29T05:56:12.018Z,5.53
2023-01-29T05:58:41.899Z,5.55
2023-01-29T06:01:13.782Z,5.58
2023-01-29T06:03:43.689Z,5.59
2023-01-29T06:06:14.203Z,5.61
2023-01-29T06:08:46.836Z,5.62
2023-01-29T06:11:18.466Z,5.63
2023-01-29T06:13:49.041Z,5.62
2023-01-29T06:16:19.516Z,5.62
2023-01-29T06:18:51.876Z,5.62
2023-01-29T06:21:22.067Z,5.63
2023-01-29T06:23:57.284Z,5.63
2023-01-29T06:26:28.704Z,5.61
2023-01-29T06:28:58.686Z,5.60
2023-01-29T06:31:38.451Z,5.59
2023-01-29T06:34:09.865Z,5.59
2023-01-29T06:36:43.608Z,5.60
2023-01-29T06:39:16.260Z,5.62
2023-01-29T06:41:47.866Z,5.62
2023-01-29T06:44:18.018Z,5.62
2023-01-29T06:46:49.026Z,5.64
2023-01-29T06:49:19.290Z,5.64
2023-01-29T06:51:49.091Z,5.66
2023-01-29T06:54:21.647Z,5.68
2023-01-29T06:56:51.526Z,5.68
2023-01-29T06:59:21.495Z,5.68
2023-01-29T07:01:51.345Z,5.66
2023-01-29T07:04:21.293Z,5.63
2023-01-29T07:06:51.135Z,5.63
2023-01-29T07:09:23.540Z,5.62
2023-01-29T07:11:53.388Z,5.61
2023-01-29T07:14:23.233Z,5.59
2023-01-29T07:16:53.117Z,5.59
2023-01-29T07:19:24.113Z,5.58
2023-01-29T07:21:53.888Z,5.55
2023-01-29T07:24:26.668Z,5.55
2023-01-29T07:26:57.059Z,5.56
2023-01-29T07:29:27.137Z,5.54
2023-01-29T07:31:57.368Z,5.55
2023-01-29T07:34:27.378Z,5.54
2023-01-29T07:36:57.449Z,5.54
2023-01-29T07:39:29.970Z,5.52
2023-01-29T07:41:59.793Z,5.51
2023-01-29T07:44:29.608Z,5.52
2023-01-29T07:46:59.538Z,5.50
2023-01-29T07:49:29.369Z,5.49
2023-01-29T07:51:59.553Z,5.51
2023-01-29T07:54:32.064Z,5.51
2023-01-29T07:57:01.994Z,5.50
2023-01-29T07:59:31.922Z,5.51
2023-01-29T08:02:01.889Z,5.54
2023-01-29T08:04:31.975Z,5.54
2023-01-29T08:07:01.938Z,5.57
2023-01-29T08:09:34.453Z,5.58
2023-01-29T08:12:04.289Z,5.57
2023-01-29T08:14:34.180Z,5.59
2023-01-29T08:17:03.956Z,5.59
2023-01-29T08:19:33.869Z,5.59
2023-01-29T08:22:03.711Z,5.59
2023-01-29T08:24:47.909Z,5.62
2023-01-29T08:27:26.442Z,5.64
2023-01-29T08:29:56.280Z,5.65
2023-01-29T08:32:26.069Z,5.64
2023-01-29T08:34:55.905Z,5.67
2023-01-29T08:37:25.695Z,5.67
2023-01-29T08:39:58.173Z,5.68
2023-01-29T08:42:27.949Z,5.68
2023-01-29T08:44:57.774Z,5.69
2023-01-29T08:47:28.724Z,5.68
2023-01-29T08:49:59.565Z,5.67
2023-01-29T08:52:29.353Z,5.68
2023-01-29T08:55:04.729Z,5.70
2023-01-29T08:57:34.533Z,5.70
2023-01-29T09:00:04.870Z,5.71
2023-01-29T09:02:34.675Z,5.72
2023-01-29T09:05:04.522Z,5.74
2023-01-29T09:07:34.288Z,5.75
2023-01-29T09:10:07.262Z,5.76
2023-01-29T09:12:37.012Z,5.78
2023-01-29T09:15:07.486Z,5.80
2023-01-29T09:17:37.248Z,5.83
2023-01-29T09:20:08.286Z,5.84
2023-01-29T09:22:39.460Z,5.85
2023-01-29T09:25:13.344Z,5.87
2023-01-29T09:27:43.179Z,5.87
2023-01-29T09:30:14.646Z,5.85
2023-01-29T09:32:53.255Z,5.86
2023-01-29T09:35:23.809Z,5.89
2023-01-29T09:37:54.412Z,5.89
2023-01-29T09:40:39.222Z,5.89
2023-01-29T09:43:15.104Z,5.89
2023-01-29T09:45:57.015Z,5.90
2023-01-29T09:48:30.991Z,5.88
2023-01-29T09:51:03.708Z,5.87
2023-01-29T09:53:42.099Z,5.90
2023-01-29T09:56:20.186Z,5.90
2023-01-29T09:58:50.636Z,5.90
2023-01-29T10:01:30.541Z,5.91
2023-01-29T10:04:17.856Z,5.94
2023-01-29T10:07:05.392Z,5.94
2023-01-29T10:10:04.171Z,5.94
2023-01-29T10:12:48.705Z,5.93
2023-01-29T10:15:32.333Z,5.95
2023-01-29T10:18:15.527Z,5.94
2023-01-29T10:21:00.086Z,5.97
2023-01-29T10:23:34.175Z,5.97
2023-01-29T10:26:04.842Z,5.97
2023-01-29T10:28:43.401Z,5.98
2023-01-29T10:31:18.337Z,5.96
2023-01-29T10:34:02.546Z,5.98
2023-01-29T10:36:39.120Z,5.97
2023-01-29T10:39:09.079Z,5.95
2023-01-29T10:42:10.941Z,5.97
2023-01-29T10:44:53.490Z,5.96
2023-01-29T10:48:04.538Z,5.97
2023-01-29T10:50:46.835Z,5.96
2023-01-29T10:53:32.468Z,5.98
2023-01-29T10:56:22.308Z,5.96
2023-01-29T10:58:55.075Z,5.97
2023-01-29T11:01:27.524Z,5.97
2023-01-29T11:04:03.930Z,5.97
2023-01-29T11:06:35.708Z,5.98
2023-01-29T11:09:11.866Z,5.99
2023-01-29T11:11:46.584Z,6.01
2023-01-29T11:14:19.541Z,6.00
2023-01-29T11:16:52.412Z,6.03
2023-01-29T11:19:38.903Z,6.03
2023-01-29T11:22:14.936Z,6.03
2023-01-29T11:24:44.760Z,6.04
2023-01-29T11:27:25.993Z,6.05
2023-01-29T11:29:56.642Z,6.07
2023-01-29T11:32:35.515Z,6.11
2023-01-29T11:35:08.035Z,6.13
2023-01-29T11:37:39.839Z,6.18
2023-01-29T11:40:38.688Z,6.21
2023-01-29T11:43:16.632Z,6.23
2023-01-29T11:45:47.083Z,6.26
2023-01-29T11:48:22.449Z,6.30
2023-01-29T11:50:58.096Z,6.32
2023-01-29T11:53:41.543Z,6.34
2023-01-29T11:56:25.530Z,6.34
2023-01-29T11:58:58.152Z,6.35
2023-01-29T12:01:35.200Z,6.37
2023-01-29T12:04:21.709Z,6.39
2023-01-29T12:06:53.860Z,6.39
2023-01-29T12:09:27.492Z,6.40
2023-01-29T12:11:57.655Z,6.40
2023-01-29T12:14:33.789Z,6.40
2023-01-29T12:17:09.322Z,6.41
2023-01-29T12:19:47.109Z,6.42
2023-01-29T12:22:24.111Z,6.44
2023-01-29T12:24:59.382Z,6.46
2023-01-29T12:27:35.106Z,6.45
2023-01-29T12:30:13.683Z,6.47
2023-01-29T12:32:51.830Z,6.48
2023-01-29T12:35:28.945Z,6.49
2023-01-29T12:38:05.292Z,6.50
2023-01-29T12:40:43.306Z,6.53
2023-01-29T12:43:18.772Z,6.55
2023-01-29T12:45:55.059Z,6.54
2023-01-29T12:48:29.930Z,6.52
2023-01-29T12:51:09.534Z,6.51
2023-01-29T12:53:44.979Z,6.50
2023-01-29T12:56:19.085Z,6.49
2023-01-29T12:58:52.726Z,6.48
2023-01-29T13:01:31.400Z,6.44
2023-01-29T13:04:06.538Z,6.43
2023-01-29T13:06:44.340Z,6.42
2023-01-29T13:09:19.779Z,6.41
2023-01-29T13:11:55.294Z,6.42
2023-01-29T13:14:29.633Z,6.42
2023-01-29T13:17:10.378Z,6.43
2023-01-29T13:19:45.452Z,6.44
2023-01-29T13:22:23.082Z,6.46
2023-01-29T13:25:04.136Z,6.45
2023-01-29T13:27:37.443Z,6.47
2023-01-29T13:30:08.648Z,6.48
2023-01-29T13:32:39.243Z,6.47
2023-01-29T13:35:17.583Z,6.46
2023-01-29T13:37:54.997Z,6.47
2023-01-29T13:40:28.218Z,6.48
2023-01-29T13:43:00.574Z,6.48
2023-01-29T13:45:36.035Z,6.48
2023-01-29T13:48:13.996Z,6.47
2023-01-29T13:50:46.099Z,6.46
2023-01-29T13:53:27.407Z,6.44
2023-01-29T13:55:57.442Z,6.43
2023-01-29T13:58:57.934Z,6.43
2023-01-29T14:02:00.695Z,6.43
2023-01-29T14:04:32.873Z,6.39
2023-01-29T14:07:03.655Z,6.38
2023-01-29T14:09:57.092Z,6.38
2023-01-29T14:12:41.734Z,6.37
2023-01-29T14:15:30.610Z,6.37
2023-01-29T14:18:26.467Z,6.36
2023-01-29T14:21:08.173Z,6.32
2023-01-29T14:23:48.712Z,6.32
2023-01-29T14:26:25.480Z,6.31
2023-01-29T14:29:02.486Z,6.32
2023-01-29T14:31:35.003Z,6.30
2023-01-29T14:34:06.414Z,6.29
2023-01-29T14:36:43.404Z,6.28
2023-01-29T14:39:25.188Z,6.26
2023-01-29T14:41:55.725Z,6.25
2023-01-29T14:44:58.763Z,6.26
2023-01-29T14:48:00.241Z,6.24
2023-01-29T14:51:02.566Z,6.24
2023-01-29T14:53:46.642Z,6.21
2023-01-29T14:56:20.613Z,6.20
2023-01-29T14:58:52.714Z,6.21
2023-01-29T15:01:28.264Z,6.22
2023-01-29T15:04:05.430Z,6.24
2023-01-29T15:06:41.902Z,6.22
2023-01-29T15:09:17.287Z,6.22
2023-01-29T15:11:55.276Z,6.22
2023-01-29T15:14:34.586Z,6.21
2023-01-29T15:17:18.320Z,6.23
2023-01-29T15:19:50.993Z,6.22
2023-01-29T15:22:23.659Z,6.22
2023-01-29T15:25:07.484Z,6.25
2023-01-29T15:27:37.856Z,6.27
2023-01-29T15:30:11.370Z,6.27
2023-01-29T15:32:44.030Z,6.26
2023-01-29T15:35:28.349Z,6.28
2023-01-29T15:38:07.208Z,6.27
2023-01-29T15:40:37.634Z,6.28
2023-01-29T15:43:23.398Z,6.31
2023-01-29T15:45:54.371Z,6.31
2023-01-29T15:48:34.417Z,6.32
2023-01-29T15:51:05.251Z,6.33
2023-01-29T15:53:39.402Z,6.33
2023-01-29T15:56:11.825Z,6.32
2023-01-29T15:58:42.973Z,6.31
2023-01-29T16:01:12.826Z,6.33
2023-01-29T16:03:46.147Z,6.32
2023-01-29T16:06:17.126Z,6.32
2023-01-29T16:08:51.341Z,6.31
2023-01-29T16:11:22.456Z,6.30
2023-01-29T16:13:53.397Z,6.30
2023-01-29T16:16:27.884Z,6.30
2023-01-29T16:19:02.563Z,6.31
2023-01-29T16:21:36.193Z,6.32
2023-01-29T16:24:11.994Z,6.33
2023-01-29T16:26:46.675Z,6.31
2023-01-29T16:29:18.859Z,6.30
2023-01-29T16:31:51.280Z,6.31
2023-01-29T16:34:29.583Z,6.32
2023-01-29T16:37:00.455Z,6.33
2023-01-29T16:39:33.404Z,6.31
2023-01-29T16:42:27.721Z,6.31
2023-01-29T16:45:03.417Z,6.31
2023-01-29T16:47:36.930Z,6.30
2023-01-29T16:50:35.988Z,6.31
2023-01-29T16:53:13.936Z,6.30
2023-01-29T16:55:49.856Z,6.29
2023-01-29T16:58:21.734Z,6.27
2023-01-29T17:00:55.175Z,6.26
2023-01-29T17:03:28.621Z,6.25
2023-01-29T17:06:01.620Z,6.23
2023-01-29T17:08:36.506Z,6.23
2023-01-29T17:11:07.570Z,6.25
2023-01-29T17:13:41.773Z,6.25
2023-01-29T17:16:23.933Z,6.25
2023-01-29T17:18:53.949Z,6.25
2023-01-29T17:21:27.094Z,6.25
2023-01-29T17:23:57.287Z,6.25
2023-01-29T17:26:27.661Z,6.24
2023-01-29T17:28:57.942Z,6.23
2023-01-29T17:31:28.006Z,6.24
2023-01-29T17:33:57.961Z,6.25
2023-01-29T17:36:30.471Z,6.25
2023-01-29T17:39:01.356Z,6.26
2023-01-29T17:41:32.995Z,6.25
2023-01-29T17:44:02.919Z,6.26
2023-01-29T17:46:32.785Z,6.24
2023-01-29T17:49:04.632Z,6.24
2023-01-29T17:51:37.283Z,6.24
2023-01-29T17:54:07.689Z,6.25
2023-01-29T17:56:39.647Z,6.24
2023-01-29T17:59:17.054Z,6.25
2023-01-29T18:01:48.428Z,6.26
2023-01-29T18:04:19.094Z,6.27
2023-01-29T18:06:54.420Z,6.27
2023-01-29T18:09:24.817Z,6.29
2023-01-29T18:11:55.112Z,6.26
2023-01-29T18:14:24.876Z,6.25
2023-01-29T18:16:57.189Z,6.27
2023-01-29T18:19:31.253Z,6.26
2023-01-29T18:22:03.671Z,6.26
2023-01-29T18:24:34.223Z,6.23
2023-01-29T18:27:03.979Z,6.22
2023-01-29T18:29:33.744Z,6.21
2023-01-29T18:32:04.217Z,6.22
2023-01-29T18:34:33.979Z,6.23
2023-01-29T18:37:06.599Z,6.22
2023-01-29T18:39:36.381Z,6.22
2023-01-29T18:42:06.259Z,6.21
2023-01-29T18:44:36.122Z,6.22
2023-01-29T18:47:05.997Z,6.20
2023-01-29T18:49:39.058Z,6.22
2023-01-29T18:52:11.460Z,6.19
2023-01-29T18:54:41.515Z,6.18
2023-01-29T18:57:14.394Z,6.17
2023-01-29T18:59:45.922Z,6.16
2023-01-29T19:02:18.092Z,6.16
2023-01-29T19:04:48.777Z,6.16
2023-01-29T19:07:21.508Z,6.14
2023-01-29T19:09:51.558Z,6.09
2023-01-29T19:12:21.508Z,6.10
2023-01-29T19:14:54.298Z,6.07
2023-01-29T19:17:24.105Z,6.06
2023-01-29T19:19:56.502Z,6.04
2023-01-29T19:22:29.584Z,6.04
2023-01-29T19:24:59.619Z,6.01
2023-01-29T19:27:30.757Z,6.00
2023-01-29T19:30:02.201Z,6.02
2023-01-29T19:32:32.271Z,6.02
2023-01-29T19:35:02.151Z,6.04
2023-01-29T19:37:34.935Z,6.04
2023-01-29T19:40:05.028Z,6.04
2023-01-29T19:42:35.650Z,6.03
2023-01-29T19:45:05.690Z,6.04
2023-01-29T19:47:35.510Z,6.04
2023-01-29T19:50:05.355Z,6.05
2023-01-29T19:52:50.724Z,6.05
2023-01-29T19:55:25.370Z,6.07
2023-01-29T19:57:55.394Z,6.07
2023-01-29T20:00:25.826Z,6.09
2023-01-29T20:02:55.734Z,6.07
2023-01-29T20:05:27.205Z,6.09
2023-01-29T20:07:59.666Z,6.10
2023-01-29T20:10:29.519Z,6.10
2023-01-29T20:12:59.333Z,6.10
2023-01-29T20:15:29.140Z,6.10
2023-01-29T20:17:59.036Z,6.12
2023-01-29T20:20:29.016Z,6.12
2023-01-29T20:23:05.093Z,6.12
2023-01-29T20:25:35.810Z,6.12
2023-01-29T20:28:06.022Z,6.12
2023-01-29T20:30:36.017Z,6.15
2023-01-29T20:33:07.531Z,6.16
2023-01-29T20:35:39.185Z,6.18
2023-01-29T20:38:11.820Z,6.18
2023-01-29T20:40:41.651Z,6.15
2023-01-29T20:43:11.516Z,6.18
2023-01-29T20:45:42.364Z,6.21
2023-01-29T20:48:12.222Z,6.22
2023-01-29T20:50:43.130Z,6.23
2023-01-29T20:53:16.460Z,6.25
2023-01-29T20:55:47.724Z,6.28
2023-01-29T20:58:17.734Z,6.28
2023-01-29T21:00:48.795Z,6.31
2023-01-29T21:03:18.664Z,6.32
2023-01-29T21:05:48.559Z,6.34
2023-01-29T21:08:21.331Z,6.35
2023-01-29T21:10:52.530Z,6.36
2023-01-29T21:13:22.438Z,6.37
2023-01-29T21:15:53.885Z,6.38
2023-01-29T21:18:25.972Z,6.37
2023-01-29T21:20:56.913Z,6.37
2023-01-29T21:23:29.416Z,6.37
2023-01-29T21:26:04.976Z,6.40
2023-01-29T21:28:35.801Z,6.39
2023-01-29T21:31:07.504Z,6.40
2023-01-29T21:33:37.390Z,6.41
2023-01-29T21:36:08.117Z,6.42
2023-01-29T21:38:40.758Z,6.44
2023-01-29T21:41:12.372Z,6.44
2023-01-29T21:43:40.069Z,6.44
2023-01-29T21:46:12.377Z,6.43
2023-01-29T21:48:43.322Z,6.44
2023-01-29T21:51:13.397Z,6.45
2023-01-29T21:53:47.752Z,6.46
2023-01-29T21:56:19.708Z,6.44
2023-01-29T21:58:50.310Z,6.43
2023-01-29T22:01:36.518Z,6.43
2023-01-29T22:04:09.873Z,6.41
2023-01-29T22:06:39.749Z,6.43
2023-01-29T22:09:12.351Z,6.47
2023-01-29T22:11:43.789Z,6.46
2023-01-29T22:14:13.729Z,6.48
2023-01-29T22:16:43.545Z,6.50
2023-01-29T22:19:13.820Z,6.54
2023-01-29T22:21:43.723Z,6.54
2023-01-29T22:24:16.193Z,6.56
2023-01-29T22:26:47.809Z,6.57
2023-01-29T22:29:19.724Z,6.59
2023-01-29T22:31:49.895Z,6.61
2023-01-29T22:34:19.703Z,6.64
2023-01-29T22:36:49.625Z,6.67
2023-01-29T22:39:22.260Z,6.70
2023-01-29T22:41:52.097Z,6.70
2023-01-29T22:44:21.897Z,6.68
2023-01-29T22:46:51.815Z,6.73
2023-01-29T22:49:23.350Z,6.74
2023-01-29T22:52:10.174Z,6.75
2023-01-29T22:54:45.174Z,6.77
2023-01-29T22:57:16.737Z,6.81
2023-01-29T22:59:46.645Z,6.84
2023-01-29T23:02:17.878Z,6.87
2023-01-29T23:04:47.727Z,6.93
2023-01-29T23:07:17.604Z,6.96
2023-01-29T23:09:50.008Z,6.99
2023-01-29T23:12:19.994Z,7.02
2023-01-29T23:14:49.831Z,7.06
2023-01-29T23:17:19.710Z,7.08
2023-01-29T23:19:49.546Z,7.10
2023-01-29T23:22:19.484Z,7.13
2023-01-29T23:24:51.925Z,7.18
2023-01-29T23:27:20.214Z,7.20
2023-01-29T23:29:51.070Z,7.22
2023-01-29T23:32:23.248Z,7.23
2023-01-29T23:34:53.176Z,7.25
2023-01-29T23:37:23.100Z,7.27
2023-01-29T23:39:55.777Z,7.30
2023-01-29T23:42:26.328Z,7.32
2023-01-29T23:44:56.183Z,7.34
2023-01-29T23:47:26.014Z,7.36
2023-01-29T23:49:56.040Z,7.38
2023-01-29T23:52:25.850Z,7.40
2023-01-29T23:54:58.210Z,7.42
2023-01-29T23:57:28.099Z,7.43
2023-01-29T23:59:57.890Z,7.45
